Time,TemperatureF,DewpointF,PressureIn,WindDirection,WindDirectionDegrees,WindSpeedMPH,WindSpeedGustMPH,Humidity,HourlyPrecipIn,Conditions,Clouds,dailyrainin,SoftwareType,DateUTC
2013-01-30 00:03:00,67.0,51.0,29.97,SW,234,1.0,4.0,57,0.00,,,0.00,,2013-01-30 00:03:00,
2013-01-30 00:12:00,67.0,51.0,29.97,SW,234,1.0,4.0,57,0.00,,,0.00,,2013-01-30 00:12:00,
2013-01-30 00:22:00,66.0,51.0,29.97,SW,229,5.0,9.0,59,0.00,,,0.00,,2013-01-30 00:22:00,
2013-01-30 00:32:00,68.0,52.0,29.97,SSE,150,2.0,14.0,56,0.00,,,0.00,,2013-01-30 00:32:00,
2013-01-30 00:43:00,68.0,52.0,29.97,SSE,150,2.0,14.0,56,0.00,,,0.00,,2013-01-30 00:43:00,
2013-01-30 00:53:00,68.0,51.0,29.98,West,281,2.0,7.0,55,0.00,,,0.00,,2013-01-30 00:53:00,
2013-01-30 01:02:00,66.0,51.0,29.99,SSW,200,2.0,4.0,58,0.00,,,0.00,,2013-01-30 01:02:00,
2013-01-30 01:12:00,66.0,51.0,29.99,SSW,200,2.0,4.0,58,0.00,,,0.00,,2013-01-30 01:12:00,
2013-01-30 01:22:00,67.0,52.0,30.00,SSW,198,0.0,4.0,59,0.00,,,0.00,,2013-01-30 01:22:00,
2013-01-30 01:32:00,66.0,51.0,30.00,SSW,212,1.0,4.0,59,0.00,,,0.00,,2013-01-30 01:32:00,
2013-01-30 01:42:00,66.0,51.0,30.00,SSW,212,1.0,4.0,59,0.00,,,0.00,,2013-01-30 01:42:00,
2013-01-30 01:52:00,66.0,51.0,29.99,SSW,204,1.0,4.0,59,0.00,,,0.00,,2013-01-30 01:52:00,
2013-01-30 02:02:00,66.0,51.0,29.98,SSW,204,0.0,1.0,59,0.00,,,0.00,,2013-01-30 02:02:00,
2013-01-30 02:12:00,66.0,51.0,29.97,SSW,204,0.0,2.0,59,0.00,,,0.00,,2013-01-30 02:12:00,
2013-01-30 02:22:00,66.0,51.0,29.97,SSW,204,0.0,2.0,59,0.00,,,0.00,,2013-01-30 02:22:00,
2013-01-30 02:33:00,67.0,52.0,29.96,NNE,27,1.0,4.0,58,0.00,,,0.00,,2013-01-30 02:33:00,
2013-01-30 02:42:00,67.0,52.0,29.96,NNE,27,1.0,4.0,58,0.00,,,0.00,,2013-01-30 02:42:00,
2013-01-30 02:53:00,66.0,51.0,29.96,NNW,327,0.0,4.0,59,0.00,,,0.00,,2013-01-30 02:53:00,
2013-01-30 03:03:00,65.0,51.0,29.96,SSE,157,2.0,4.0,61,0.00,,,0.00,,2013-01-30 03:03:00,
2013-01-30 03:12:00,65.0,51.0,29.96,SSE,157,2.0,4.0,61,0.00,,,0.00,,2013-01-30 03:12:00,
2013-01-30 03:22:00,65.0,51.0,29.95,SSW,195,2.0,4.0,61,0.00,,,0.00,,2013-01-30 03:22:00,
2013-01-30 03:32:00,65.0,51.0,29.95,SSE,155,1.0,3.0,61,0.00,,,0.00,,2013-01-30 03:32:00,
2013-01-30 03:42:00,65.0,51.0,29.95,SSE,155,1.0,3.0,61,0.00,,,0.00,,2013-01-30 03:42:00,
2013-01-30 03:52:00,65.0,52.0,29.94,SSE,156,0.0,1.0,62,0.00,,,0.00,,2013-01-30 03:52:00,
2013-01-30 04:02:00,65.0,52.0,29.93,SSE,156,0.0,1.0,62,0.00,,,0.00,,2013-01-30 04:02:00,
2013-01-30 04:12:00,65.0,52.0,29.93,SSE,156,0.0,1.0,62,0.00,,,0.00,,2013-01-30 04:12:00,
2013-01-30 04:22:00,65.0,51.0,29.92,SSE,156,0.0,1.0,61,0.00,,,0.00,,2013-01-30 04:22:00,
2013-01-30 04:32:00,67.0,53.0,29.92,WSW,252,4.0,11.0,60,0.00,,,0.00,,2013-01-30 04:32:00,
2013-01-30 04:42:00,67.0,53.0,29.92,WSW,252,4.0,11.0,60,0.00,,,0.00,,2013-01-30 04:42:00,
2013-01-30 04:52:00,69.0,54.0,29.92,West,271,3.0,11.0,59,0.00,,,0.00,,2013-01-30 04:52:00,
2013-01-30 05:03:00,69.0,54.0,29.91,NW,321,1.0,4.0,58,0.00,,,0.00,,2013-01-30 05:03:00,
2013-01-30 05:12:00,69.0,54.0,29.89,East,96,1.0,6.0,58,0.00,,,0.00,,2013-01-30 05:12:00,
2013-01-30 05:22:00,69.0,54.0,29.89,East,96,1.0,6.0,58,0.00,,,0.00,,2013-01-30 05:22:00,
2013-01-30 05:32:00,69.0,55.0,29.87,SSE,147,3.0,12.0,60,0.00,,,0.00,,2013-01-30 05:32:00,
2013-01-30 05:43:00,69.0,55.0,29.87,SSE,147,3.0,12.0,60,0.00,,,0.00,,2013-01-30 05:43:00,
2013-01-30 05:52:00,69.0,55.0,29.88,NW,309,4.0,9.0,60,0.00,,,0.00,,2013-01-30 05:52:00,
2013-01-30 06:02:00,68.0,54.0,29.85,ESE,114,1.0,6.0,60,0.00,,,0.00,,2013-01-30 06:02:00,
2013-01-30 06:11:00,68.0,54.0,29.85,ESE,114,1.0,6.0,60,0.00,,,0.00,,2013-01-30 06:11:00,
2013-01-30 06:21:00,69.0,53.0,29.84,SW,234,4.0,16.0,57,0.00,,,0.00,,2013-01-30 06:21:00,
2013-01-30 06:32:00,70.0,54.0,29.84,North,5,2.0,14.0,57,0.00,,,0.00,,2013-01-30 06:32:00,
2013-01-30 06:42:00,70.0,54.0,29.84,North,5,2.0,14.0,57,0.00,,,0.00,,2013-01-30 06:42:00,
2013-01-30 06:52:00,70.0,54.0,29.83,West,275,5.0,11.0,57,0.00,,,0.00,,2013-01-30 06:52:00,
2013-01-30 07:02:00,70.0,54.0,29.83,West,261,5.0,11.0,57,0.00,,,0.00,,2013-01-30 07:02:00,
2013-01-30 07:11:00,70.0,54.0,29.83,West,261,5.0,11.0,57,0.00,,,0.00,,2013-01-30 07:11:00,
2013-01-30 07:21:00,70.0,54.0,29.81,North,5,6.0,12.0,56,0.00,,,0.00,,2013-01-30 07:21:00,
2013-01-30 07:32:00,70.0,53.0,29.79,WNW,289,5.0,15.0,55,0.00,,,0.00,,2013-01-30 07:32:00,
2013-01-30 07:42:00,70.0,53.0,29.79,WNW,289,5.0,15.0,55,0.00,,,0.00,,2013-01-30 07:42:00,
2013-01-30 07:52:00,70.0,52.0,29.80,ESE,122,13.0,33.0,52,0.00,,,0.00,,2013-01-30 07:52:00,
2013-01-30 08:01:00,70.0,52.0,29.80,WNW,298,4.0,13.0,52,0.00,,,0.00,,2013-01-30 08:01:00,
2013-01-30 08:11:00,70.0,52.0,29.80,WNW,298,4.0,13.0,52,0.00,,,0.00,,2013-01-30 08:11:00,
2013-01-30 08:21:00,70.0,52.0,29.77,NNE,24,10.0,15.0,52,0.00,,,0.00,,2013-01-30 08:21:00,
2013-01-30 08:32:00,70.0,52.0,29.78,NW,317,4.0,16.0,53,0.00,,,0.00,,2013-01-30 08:32:00,
2013-01-30 08:42:00,70.0,52.0,29.78,NW,317,4.0,16.0,53,0.00,,,0.00,,2013-01-30 08:42:00,
2013-01-30 08:52:00,69.0,52.0,29.77,WSW,255,7.0,18.0,55,0.00,,,0.00,,2013-01-30 08:52:00,
2013-01-30 09:02:00,69.0,53.0,29.75,NW,322,7.0,26.0,56,0.00,,,0.00,,2013-01-30 09:02:00,
2013-01-30 09:11:00,69.0,53.0,29.75,NW,322,7.0,26.0,56,0.00,,,0.00,,2013-01-30 09:11:00,
2013-01-30 09:21:00,69.0,53.0,29.75,NNW,327,8.0,17.0,56,0.00,,,0.00,,2013-01-30 09:21:00,
2013-01-30 09:32:00,70.0,55.0,29.74,NW,306,8.0,24.0,58,0.00,,,0.00,,2013-01-30 09:32:00,
2013-01-30 09:42:00,70.0,55.0,29.74,NW,306,8.0,24.0,58,0.00,,,0.00,,2013-01-30 09:42:00,
2013-01-30 09:52:00,70.0,55.0,29.74,NNE,14,3.0,20.0,58,0.00,,,0.00,,2013-01-30 09:52:00,
2013-01-30 10:01:00,69.0,54.0,29.72,NNE,21,2.0,8.0,59,0.00,,,0.00,,2013-01-30 10:01:00,
2013-01-30 10:11:00,69.0,54.0,29.72,NNE,21,2.0,8.0,59,0.00,,,0.00,,2013-01-30 10:11:00,
2013-01-30 10:21:00,70.0,55.0,29.72,West,263,5.0,14.0,58,0.00,,,0.00,,2013-01-30 10:21:00,
2013-01-30 10:32:00,70.0,55.0,29.72,West,281,2.0,11.0,58,0.00,,,0.00,,2013-01-30 10:32:00,
2013-01-30 10:42:00,70.0,55.0,29.72,West,281,2.0,11.0,58,0.00,,,0.00,,2013-01-30 10:42:00,
2013-01-30 10:52:00,69.0,54.0,29.72,WNW,295,9.0,15.0,58,0.00,,,0.00,,2013-01-30 10:52:00,
2013-01-30 11:02:00,69.0,54.0,29.71,NW,318,6.0,12.0,58,0.00,,,0.00,,2013-01-30 11:02:00,
2013-01-30 11:11:00,69.0,54.0,29.71,NW,318,6.0,12.0,58,0.00,,,0.00,,2013-01-30 11:11:00,
2013-01-30 11:22:00,70.0,54.0,29.69,NNE,22,4.0,9.0,57,0.00,,,0.00,,2013-01-30 11:22:00,
2013-01-30 11:33:00,70.0,54.0,29.67,NNE,15,4.0,16.0,56,0.00,,,0.00,,2013-01-30 11:33:00,
2013-01-30 11:42:00,70.0,54.0,29.67,NNE,15,4.0,16.0,56,0.00,,,0.00,,2013-01-30 11:42:00,
2013-01-30 11:52:00,71.0,54.0,29.67,ENE,74,3.0,17.0,55,0.00,,,0.00,,2013-01-30 11:52:00,
2013-01-30 12:02:00,71.0,54.0,29.66,West,281,12.0,17.0,56,0.00,,,0.00,,2013-01-30 12:02:00,
2013-01-30 12:12:00,71.0,54.0,29.66,West,281,12.0,17.0,56,0.00,,,0.00,,2013-01-30 12:12:00,
2013-01-30 12:22:00,70.0,55.0,29.66,ESE,122,4.0,8.0,60,0.00,,,0.00,,2013-01-30 12:22:00,
2013-01-30 12:33:00,69.0,55.0,29.66,NW,319,2.0,9.0,62,0.00,,,0.00,,2013-01-30 12:33:00,
2013-01-30 12:43:00,69.0,55.0,29.66,NW,319,2.0,9.0,62,0.00,,,0.00,,2013-01-30 12:43:00,
2013-01-30 13:03:00,69.0,55.0,29.66,West,259,4.0,16.0,60,0.00,,,0.00,,2013-01-30 13:03:00,
2013-01-30 13:12:00,69.0,55.0,29.66,West,259,4.0,16.0,60,0.00,,,0.00,,2013-01-30 13:12:00,
2013-01-30 13:23:00,70.0,55.0,29.67,South,183,4.0,19.0,60,0.00,,,0.00,,2013-01-30 13:23:00,
2013-01-30 13:33:00,69.0,56.0,29.66,SSE,155,3.0,13.0,63,0.01,,,0.01,,2013-01-30 13:33:00,
2013-01-30 13:43:00,69.0,56.0,29.66,SSE,155,3.0,13.0,63,0.01,,,0.01,,2013-01-30 13:43:00,
2013-01-30 13:52:00,68.0,57.0,29.68,SSW,205,2.0,11.0,68,0.02,,,0.02,,2013-01-30 13:52:00,
2013-01-30 14:03:00,67.0,56.0,29.64,SE,136,5.0,10.0,69,0.02,,,0.02,,2013-01-30 14:03:00,
2013-01-30 14:12:00,67.0,56.0,29.64,SE,136,5.0,10.0,69,0.02,,,0.02,,2013-01-30 14:12:00,
2013-01-30 14:23:00,68.0,56.0,29.64,ENE,65,6.0,12.0,66,0.02,,,0.02,,2013-01-30 14:23:00,
2013-01-30 14:33:00,68.0,57.0,29.64,SW,221,1.0,7.0,67,0.01,,,0.02,,2013-01-30 14:33:00,
2013-01-30 14:42:00,68.0,57.0,29.64,SW,221,1.0,7.0,67,0.01,,,0.02,,2013-01-30 14:42:00,
2013-01-30 14:53:00,69.0,57.0,29.64,NW,315,4.0,7.0,65,0.00,,,0.02,,2013-01-30 14:53:00,
2013-01-30 15:03:00,69.0,56.0,29.63,WSW,257,7.0,20.0,63,0.00,,,0.02,,2013-01-30 15:03:00,
2013-01-30 15:12:00,69.0,56.0,29.63,WSW,257,7.0,20.0,63,0.00,,,0.02,,2013-01-30 15:12:00,
2013-01-30 15:23:00,70.0,56.0,29.65,South,183,1.0,6.0,61,0.00,,,0.02,,2013-01-30 15:23:00,
2013-01-30 15:33:00,70.0,56.0,29.65,WNW,290,2.0,7.0,62,0.00,,,0.02,,2013-01-30 15:33:00,
2013-01-30 15:43:00,70.0,56.0,29.65,WNW,290,2.0,7.0,62,0.00,,,0.02,,2013-01-30 15:43:00,
2013-01-30 15:53:00,68.0,54.0,29.71,NNW,329,9.0,18.0,62,0.00,,,0.02,,2013-01-30 15:53:00,
2013-01-30 16:03:00,62.0,53.0,29.71,NNW,332,1.0,9.0,72,0.00,,,0.02,,2013-01-30 16:03:00,
2013-01-30 16:12:00,62.0,53.0,29.71,NNW,332,1.0,9.0,72,0.00,,,0.02,,2013-01-30 16:12:00,
2013-01-30 16:23:00,60.0,53.0,29.70,ENE,70,3.0,5.0,77,0.00,,,0.02,,2013-01-30 16:23:00,
2013-01-30 16:32:00,59.0,53.0,29.70,WNW,299,1.0,3.0,80,0.00,,,0.02,,2013-01-30 16:32:00,
2013-01-30 16:42:00,59.0,53.0,29.70,WNW,299,1.0,3.0,80,0.00,,,0.02,,2013-01-30 16:42:00,
2013-01-30 16:52:00,59.0,53.0,29.70,WNW,299,1.0,3.0,80,0.00,,,0.02,,2013-01-30 16:52:00,
2013-01-30 17:02:00,58.0,52.0,29.67,ENE,74,0.0,2.0,81,0.01,,,0.03,,2013-01-30 17:02:00,
2013-01-30 17:12:00,58.0,52.0,29.67,ENE,74,0.0,2.0,81,0.01,,,0.03,,2013-01-30 17:12:00,
2013-01-30 17:23:00,57.0,52.0,29.67,East,98,0.0,5.0,84,0.10,,,0.12,,2013-01-30 17:23:00,
2013-01-30 17:33:00,57.0,53.0,29.67,East,98,1.0,3.0,85,0.26,,,0.28,,2013-01-30 17:33:00,
2013-01-30 17:43:00,57.0,53.0,29.67,East,98,1.0,3.0,85,0.26,,,0.28,,2013-01-30 17:43:00,
2013-01-30 17:53:00,57.0,53.0,29.65,East,95,4.0,8.0,86,0.42,,,0.44,,2013-01-30 17:53:00,
2013-01-30 18:03:00,56.0,52.0,29.63,NE,54,3.0,4.0,87,0.49,,,0.56,,2013-01-30 18:03:00,
2013-01-30 18:13:00,56.0,52.0,29.63,NE,54,3.0,4.0,87,0.49,,,0.56,,2013-01-30 18:13:00,
2013-01-30 18:23:00,56.0,52.0,29.62,NE,55,2.0,3.0,87,0.51,,,0.60,,2013-01-30 18:23:00,
2013-01-30 18:33:00,56.0,52.0,29.62,SSW,194,4.0,19.0,88,0.43,,,0.71,,2013-01-30 18:33:00,
2013-01-30 18:42:00,56.0,52.0,29.62,SSW,194,4.0,19.0,88,0.43,,,0.71,,2013-01-30 18:42:00,
2013-01-30 18:52:00,57.0,53.0,29.62,ESE,113,8.0,15.0,88,0.36,,,0.76,,2013-01-30 18:52:00,
2013-01-30 19:03:00,57.0,53.0,29.62,East,100,5.0,14.0,87,0.30,,,0.86,,2013-01-30 19:03:00,
2013-01-30 19:12:00,57.0,53.0,29.62,East,100,5.0,14.0,87,0.30,,,0.86,,2013-01-30 19:12:00,
2013-01-30 19:22:00,57.0,53.0,29.59,SE,133,2.0,15.0,87,0.29,,,0.92,,2013-01-30 19:22:00,
2013-01-30 19:32:00,57.0,53.0,29.59,West,269,3.0,17.0,87,0.27,,,0.98,,2013-01-30 19:32:00,
2013-01-30 19:43:00,57.0,53.0,29.59,West,269,3.0,17.0,87,0.27,,,0.98,,2013-01-30 19:43:00,
2013-01-30 19:52:00,57.0,53.0,29.59,SW,221,1.0,7.0,86,0.25,,,1.02,,2013-01-30 19:52:00,
2013-01-30 20:03:00,57.0,53.0,29.56,SSW,211,4.0,8.0,86,0.23,,,1.07,,2013-01-30 20:03:00,
2013-01-30 20:12:00,57.0,53.0,29.56,SSW,211,4.0,8.0,86,0.23,,,1.07,,2013-01-30 20:12:00,
2013-01-30 20:22:00,57.0,53.0,29.55,South,184,2.0,6.0,86,0.22,,,1.12,,2013-01-30 20:22:00,
2013-01-30 20:33:00,57.0,53.0,29.54,South,188,1.0,8.0,87,0.21,,,1.19,,2013-01-30 20:33:00,
2013-01-30 20:42:00,57.0,53.0,29.54,South,188,1.0,8.0,87,0.21,,,1.19,,2013-01-30 20:42:00,
2013-01-30 20:52:00,57.0,53.0,29.53,WSW,241,4.0,7.0,87,0.21,,,1.23,,2013-01-30 20:52:00,
2013-01-30 21:03:00,57.0,53.0,29.52,SW,221,1.0,5.0,87,0.21,,,1.30,,2013-01-30 21:03:00,
2013-01-30 21:12:00,57.0,53.0,29.52,SW,221,1.0,5.0,87,0.21,,,1.30,,2013-01-30 21:12:00,
2013-01-30 21:23:00,57.0,53.0,29.53,SW,227,5.0,11.0,87,0.20,,,1.34,,2013-01-30 21:23:00,
2013-01-30 21:32:00,57.0,53.0,29.53,West,278,2.0,7.0,87,0.19,,,1.39,,2013-01-30 21:32:00,
2013-01-30 21:42:00,57.0,53.0,29.53,West,278,2.0,7.0,87,0.19,,,1.39,,2013-01-30 21:42:00,
2013-01-30 21:53:00,56.0,52.0,29.54,West,262,8.0,15.0,87,0.19,,,1.44,,2013-01-30 21:53:00,
2013-01-30 22:03:00,54.0,50.0,29.57,WNW,296,7.0,24.0,87,0.18,,,1.48,,2013-01-30 22:03:00,
2013-01-30 22:12:00,54.0,50.0,29.57,WNW,296,7.0,24.0,87,0.18,,,1.48,,2013-01-30 22:12:00,
2013-01-30 22:22:00,53.0,49.0,29.57,WSW,252,9.0,22.0,87,0.18,,,1.51,,2013-01-30 22:22:00,
2013-01-30 22:32:00,51.0,47.0,29.56,WNW,292,3.0,22.0,86,0.17,,,1.55,,2013-01-30 22:32:00,
2013-01-30 22:42:00,51.0,47.0,29.56,WNW,292,3.0,22.0,86,0.17,,,1.55,,2013-01-30 22:42:00,
2013-01-30 22:53:00,51.0,47.0,29.60,WNW,293,5.0,17.0,86,0.16,,,1.60,,2013-01-30 22:53:00,
2013-01-30 23:02:00,49.0,45.0,29.60,NW,320,3.0,17.0,85,0.15,,,1.63,,2013-01-30 23:02:00,
2013-01-30 23:12:00,49.0,45.0,29.60,NW,320,3.0,17.0,85,0.15,,,1.63,,2013-01-30 23:12:00,
2013-01-30 23:22:00,49.0,45.0,29.60,SW,235,1.0,12.0,85,0.14,,,1.65,,2013-01-30 23:22:00,
2013-01-30 23:32:00,47.0,43.0,29.60,SSW,209,4.0,14.0,85,0.12,,,1.68,,2013-01-30 23:32:00,
2013-01-30 23:42:00,47.0,43.0,29.60,SSW,209,4.0,14.0,85,0.12,,,1.68,,2013-01-30 23:42:00,
2013-01-30 23:52:00,47.0,43.0,29.64,SSE,157,5.0,13.0,85,0.11,,,1.70,,2013-01-30 23:52:00,